sensor_id;sensor_type;location;lat;lon;timestamp;P1;durP1;ratioP1;P2;durP2;ratioP2
2674;SDS011;1347;42.122;24.746;2023-05-07T00:01:28;11.70;;;10.17;;
2674;SDS011;1347;42.122;24.746;2023-05-07T00:03:55;11.10;;;9.73;;
2674;SDS011;1347;42.122;24.746;2023-05-07T00:06:22;10.57;;;9.40;;
2674;SDS011;1347;42.122;24.746;2023-05-07T00:08:50;10.10;;;9.10;;
2674;SDS011;1347;42.122;24.746;2023-05-07T00:11:17;9.63;;;8.73;;
2674;SDS011;1347;42.122;24.746;2023-05-07T00:13:44;11.80;;;10.03;;
2674;SDS011;1347;42.122;24.746;2023-05-07T00:16:11;10.30;;;9.30;;
2674;SDS011;1347;42.122;24.746;2023-05-07T00:18:38;16.20;;;11.20;;
2674;SDS011;1347;42.122;24.746;2023-05-07T00:21:05;13.83;;;10.53;;
2674;SDS011;1347;42.122;24.746;2023-05-07T00:23:32;11.03;;;9.93;;
2674;SDS011;1347;42.122;24.746;2023-05-07T00:26:00;11.53;;;9.57;;
2674;SDS011;1347;42.122;24.746;2023-05-07T00:28:27;11.40;;;9.50;;
2674;SDS011;1347;42.122;24.746;2023-05-07T00:30:54;9.03;;;8.17;;
2674;SDS011;1347;42.122;24.746;2023-05-07T00:33:21;10.07;;;9.13;;
2674;SDS011;1347;42.122;24.746;2023-05-07T00:35:48;9.20;;;8.30;;
2674;SDS011;1347;42.122;24.746;2023-05-07T00:38:15;9.90;;;8.90;;
2674;SDS011;1347;42.122;24.746;2023-05-07T00:40:42;10.37;;;9.37;;
2674;SDS011;1347;42.122;24.746;2023-05-07T00:43:10;10.17;;;9.27;;
2674;SDS011;1347;42.122;24.746;2023-05-07T00:45:37;16.23;;;8.60;;
2674;SDS011;1347;42.122;24.746;2023-05-07T00:48:05;9.60;;;8.70;;
2674;SDS011;1347;42.122;24.746;2023-05-07T00:50:32;9.10;;;8.27;;
2674;SDS011;1347;42.122;24.746;2023-05-07T00:52:59;9.30;;;8.43;;
2674;SDS011;1347;42.122;24.746;2023-05-07T00:55:26;13.00;;;9.47;;
2674;SDS011;1347;42.122;24.746;2023-05-07T00:57:53;9.30;;;8.50;;
2674;SDS011;1347;42.122;24.746;2023-05-07T01:00:22;12.93;;;8.50;;
2674;SDS011;1347;42.122;24.746;2023-05-07T01:02:50;8.60;;;7.77;;
2674;SDS011;1347;42.122;24.746;2023-05-07T01:05:17;13.60;;;8.13;;
2674;SDS011;1347;42.122;24.746;2023-05-07T01:07:46;9.10;;;8.20;;
2674;SDS011;1347;42.122;24.746;2023-05-07T01:10:15;9.27;;;8.37;;
2674;SDS011;1347;42.122;24.746;2023-05-07T01:12:43;8.63;;;7.73;;
2674;SDS011;1347;42.122;24.746;2023-05-07T01:15:12;11.80;;;8.83;;
2674;SDS011;1347;42.122;24.746;2023-05-07T01:17:41;9.07;;;8.10;;
2674;SDS011;1347;42.122;24.746;2023-05-07T01:20:09;11.20;;;8.47;;
2674;SDS011;1347;42.122;24.746;2023-05-07T01:22:38;9.03;;;8.13;;
2674;SDS011;1347;42.122;24.746;2023-05-07T01:25:06;9.03;;;8.13;;
2674;SDS011;1347;42.122;24.746;2023-05-07T01:27:34;10.27;;;9.10;;
2674;SDS011;1347;42.122;24.746;2023-05-07T01:30:02;10.40;;;9.30;;
2674;SDS011;1347;42.122;24.746;2023-05-07T01:32:31;8.60;;;7.53;;
2674;SDS011;1347;42.122;24.746;2023-05-07T01:35:01;9.17;;;8.27;;
2674;SDS011;1347;42.122;24.746;2023-05-07T01:37:31;9.90;;;7.87;;
2674;SDS011;1347;42.122;24.746;2023-05-07T01:40:00;9.20;;;8.20;;
2674;SDS011;1347;42.122;24.746;2023-05-07T01:42:29;11.60;;;8.87;;
2674;SDS011;1347;42.122;24.746;2023-05-07T01:44:56;9.17;;;8.20;;
2674;SDS011;1347;42.122;24.746;2023-05-07T01:47:23;9.40;;;8.50;;
2674;SDS011;1347;42.122;24.746;2023-05-07T01:49:51;9.27;;;8.30;;
2674;SDS011;1347;42.122;24.746;2023-05-07T01:52:19;9.07;;;8.00;;
2674;SDS011;1347;42.122;24.746;2023-05-07T01:54:46;9.70;;;8.80;;
2674;SDS011;1347;42.122;24.746;2023-05-07T01:57:14;9.20;;;7.87;;
2674;SDS011;1347;42.122;24.746;2023-05-07T01:59:41;11.07;;;9.23;;
2674;SDS011;1347;42.122;24.746;2023-05-07T02:02:08;9.93;;;8.57;;
2674;SDS011;1347;42.122;24.746;2023-05-07T02:04:35;9.57;;;8.17;;
2674;SDS011;1347;42.122;24.746;2023-05-07T02:07:02;8.77;;;7.97;;
2674;SDS011;1347;42.122;24.746;2023-05-07T02:09:29;9.80;;;8.80;;
2674;SDS011;1347;42.122;24.746;2023-05-07T02:11:56;11.43;;;9.70;;
2674;SDS011;1347;42.122;24.746;2023-05-07T02:14:24;10.60;;;8.87;;
2674;SDS011;1347;42.122;24.746;2023-05-07T02:16:51;9.83;;;8.83;;
2674;SDS011;1347;42.122;24.746;2023-05-07T02:19:18;10.57;;;9.57;;
2674;SDS011;1347;42.122;24.746;2023-05-07T02:21:46;11.80;;;9.73;;
2674;SDS011;1347;42.122;24.746;2023-05-07T02:24:13;11.27;;;8.87;;
2674;SDS011;1347;42.122;24.746;2023-05-07T02:26:40;13.73;;;9.47;;
2674;SDS011;1347;42.122;24.746;2023-05-07T02:29:07;9.80;;;8.90;;
2674;SDS011;1347;42.122;24.746;2023-05-07T02:31:35;15.03;;;10.00;;
2674;SDS011;1347;42.122;24.746;2023-05-07T02:34:02;14.03;;;9.73;;
2674;SDS011;1347;42.122;24.746;2023-05-07T02:36:29;10.53;;;9.60;;
2674;SDS011;1347;42.122;24.746;2023-05-07T02:38:56;11.97;;;10.77;;
2674;SDS011;1347;42.122;24.746;2023-05-07T02:41:23;10.40;;;9.50;;
2674;SDS011;1347;42.122;24.746;2023-05-07T02:43:50;12.90;;;11.00;;
2674;SDS011;1347;42.122;24.746;2023-05-07T02:46:17;13.90;;;10.57;;
2674;SDS011;1347;42.122;24.746;2023-05-07T02:48:45;10.40;;;9.40;;
2674;SDS011;1347;42.122;24.746;2023-05-07T02:51:12;11.67;;;10.43;;
2674;SDS011;1347;42.122;24.746;2023-05-07T02:53:38;12.50;;;11.17;;
2674;SDS011;1347;42.122;24.746;2023-05-07T02:56:06;11.67;;;10.57;;
2674;SDS011;1347;42.122;24.746;2023-05-07T02:58:33;14.60;;;10.80;;
2674;SDS011;1347;42.122;24.746;2023-05-07T03:01:00;13.03;;;10.70;;
2674;SDS011;1347;42.122;24.746;2023-05-07T03:03:27;12.53;;;11.30;;
2674;SDS011;1347;42.122;24.746;2023-05-07T03:05:55;12.80;;;11.70;;
2674;SDS011;1347;42.122;24.746;2023-05-07T03:08:22;14.80;;;12.50;;
2674;SDS011;1347;42.122;24.746;2023-05-07T03:10:49;12.50;;;11.40;;
2674;SDS011;1347;42.122;24.746;2023-05-07T03:13:15;14.67;;;12.27;;
2674;SDS011;1347;42.122;24.746;2023-05-07T03:15:42;13.07;;;11.67;;
2674;SDS011;1347;42.122;24.746;2023-05-07T03:18:09;13.63;;;12.30;;
2674;SDS011;1347;42.122;24.746;2023-05-07T03:20:36;13.37;;;12.17;;
2674;SDS011;1347;42.122;24.746;2023-05-07T03:23:04;13.20;;;11.80;;
2674;SDS011;1347;42.122;24.746;2023-05-07T03:25:31;13.67;;;12.40;;
2674;SDS011;1347;42.122;24.746;2023-05-07T03:27:58;14.80;;;13.10;;
2674;SDS011;1347;42.122;24.746;2023-05-07T03:30:25;13.87;;;12.13;;
2674;SDS011;1347;42.122;24.746;2023-05-07T03:32:52;14.13;;;12.83;;
2674;SDS011;1347;42.122;24.746;2023-05-07T03:35:19;15.73;;;14.10;;
2674;SDS011;1347;42.122;24.746;2023-05-07T03:37:46;15.67;;;14.17;;
2674;SDS011;1347;42.122;24.746;2023-05-07T03:40:14;13.83;;;12.53;;
2674;SDS011;1347;42.122;24.746;2023-05-07T03:42:41;16.13;;;14.63;;
2674;SDS011;1347;42.122;24.746;2023-05-07T03:45:08;15.00;;;13.53;;
2674;SDS011;1347;42.122;24.746;2023-05-07T03:47:35;15.20;;;13.80;;
2674;SDS011;1347;42.122;24.746;2023-05-07T03:50:02;19.80;;;15.30;;
2674;SDS011;1347;42.122;24.746;2023-05-07T03:52:29;17.07;;;15.37;;
2674;SDS011;1347;42.122;24.746;2023-05-07T03:54:56;14.80;;;13.30;;
2674;SDS011;1347;42.122;24.746;2023-05-07T03:57:25;14.60;;;13.23;;
2674;SDS011;1347;42.122;24.746;2023-05-07T03:59:51;14.47;;;13.17;;
2674;SDS011;1347;42.122;24.746;2023-05-07T04:02:18;15.37;;;13.97;;
2674;SDS011;1347;42.122;24.746;2023-05-07T04:04:45;18.13;;;13.57;;
2674;SDS011;1347;42.122;24.746;2023-05-07T04:07:12;14.93;;;13.43;;
2674;SDS011;1347;42.122;24.746;2023-05-07T04:09:39;14.83;;;13.53;;
2674;SDS011;1347;42.122;24.746;2023-05-07T04:12:06;16.20;;;14.50;;
2674;SDS011;1347;42.122;24.746;2023-05-07T04:14:35;13.67;;;12.30;;
2674;SDS011;1347;42.122;24.746;2023-05-07T04:17:01;17.13;;;13.60;;
2674;SDS011;1347;42.122;24.746;2023-05-07T04:19:28;15.97;;;13.70;;
2674;SDS011;1347;42.122;24.746;2023-05-07T04:21:56;15.53;;;13.93;;
2674;SDS011;1347;42.122;24.746;2023-05-07T04:24:23;13.50;;;12.10;;
2674;SDS011;1347;42.122;24.746;2023-05-07T04:26:50;15.77;;;12.60;;
2674;SDS011;1347;42.122;24.746;2023-05-07T04:29:17;14.93;;;13.43;;
2674;SDS011;1347;42.122;24.746;2023-05-07T04:31:46;17.87;;;13.17;;
2674;SDS011;1347;42.122;24.746;2023-05-07T04:34:12;13.77;;;12.53;;
2674;SDS011;1347;42.122;24.746;2023-05-07T04:36:39;17.07;;;13.13;;
2674;SDS011;1347;42.122;24.746;2023-05-07T04:39:06;14.43;;;13.20;;
2674;SDS011;1347;42.122;24.746;2023-05-07T04:41:34;17.10;;;13.73;;
2674;SDS011;1347;42.122;24.746;2023-05-07T04:44:02;14.17;;;12.77;;
2674;SDS011;1347;42.122;24.746;2023-05-07T04:46:31;14.07;;;12.73;;
2674;SDS011;1347;42.122;24.746;2023-05-07T04:48:59;14.23;;;13.00;;
2674;SDS011;1347;42.122;24.746;2023-05-07T04:51:26;15.60;;;13.37;;
2674;SDS011;1347;42.122;24.746;2023-05-07T04:53:53;13.07;;;11.73;;
2674;SDS011;1347;42.122;24.746;2023-05-07T04:56:19;14.97;;;13.37;;
2674;SDS011;1347;42.122;24.746;2023-05-07T04:58:46;12.90;;;11.70;;
2674;SDS011;1347;42.122;24.746;2023-05-07T05:01:13;13.50;;;12.30;;
2674;SDS011;1347;42.122;24.746;2023-05-07T05:03:40;14.27;;;11.70;;
2674;SDS011;1347;42.122;24.746;2023-05-07T05:06:08;12.60;;;11.50;;
2674;SDS011;1347;42.122;24.746;2023-05-07T05:08:36;13.60;;;12.37;;
2674;SDS011;1347;42.122;24.746;2023-05-07T05:11:03;13.57;;;11.83;;
2674;SDS011;1347;42.122;24.746;2023-05-07T05:13:30;13.77;;;12.10;;
2674;SDS011;1347;42.122;24.746;2023-05-07T05:15:57;15.13;;;12.90;;
2674;SDS011;1347;42.122;24.746;2023-05-07T05:18:23;12.43;;;11.20;;
2674;SDS011;1347;42.122;24.746;2023-05-07T05:20:51;12.53;;;11.37;;
2674;SDS011;1347;42.122;24.746;2023-05-07T05:23:19;14.73;;;11.73;;
2674;SDS011;1347;42.122;24.746;2023-05-07T05:25:46;13.10;;;11.80;;
2674;SDS011;1347;42.122;24.746;2023-05-07T05:28:13;13.03;;;11.77;;
2674;SDS011;1347;42.122;24.746;2023-05-07T05:30:40;14.80;;;11.77;;
2674;SDS011;1347;42.122;24.746;2023-05-07T05:33:07;12.40;;;10.50;;
2674;SDS011;1347;42.122;24.746;2023-05-07T05:35:34;13.53;;;10.70;;
2674;SDS011;1347;42.122;24.746;2023-05-07T05:38:01;11.90;;;10.70;;
2674;SDS011;1347;42.122;24.746;2023-05-07T05:40:29;13.00;;;11.90;;
2674;SDS011;1347;42.122;24.746;2023-05-07T05:42:57;12.37;;;11.13;;
2674;SDS011;1347;42.122;24.746;2023-05-07T05:45:24;14.07;;;11.53;;
2674;SDS011;1347;42.122;24.746;2023-05-07T05:47:51;14.27;;;12.07;;
2674;SDS011;1347;42.122;24.746;2023-05-07T05:50:18;12.30;;;10.67;;
2674;SDS011;1347;42.122;24.746;2023-05-07T05:52:45;12.53;;;11.33;;
2674;SDS011;1347;42.122;24.746;2023-05-07T05:55:11;10.40;;;9.30;;
2674;SDS011;1347;42.122;24.746;2023-05-07T05:57:40;14.00;;;9.47;;
2674;SDS011;1347;42.122;24.746;2023-05-07T06:00:07;11.50;;;10.40;;
2674;SDS011;1347;42.122;24.746;2023-05-07T06:02:35;10.53;;;9.37;;
2674;SDS011;1347;42.122;24.746;2023-05-07T06:05:02;10.80;;;9.80;;
2674;SDS011;1347;42.122;24.746;2023-05-07T06:07:29;10.10;;;9.10;;
2674;SDS011;1347;42.122;24.746;2023-05-07T06:09:56;10.93;;;9.50;;
2674;SDS011;1347;42.122;24.746;2023-05-07T06:12:23;9.80;;;8.90;;
2674;SDS011;1347;42.122;24.746;2023-05-07T06:14:51;9.63;;;8.73;;
2674;SDS011;1347;42.122;24.746;2023-05-07T06:17:18;10.27;;;8.97;;
2674;SDS011;1347;42.122;24.746;2023-05-07T06:19:45;10.57;;;9.47;;
2674;SDS011;1347;42.122;24.746;2023-05-07T06:22:12;10.93;;;9.00;;
2674;SDS011;1347;42.122;24.746;2023-05-07T06:24:39;11.13;;;9.17;;
2674;SDS011;1347;42.122;24.746;2023-05-07T06:27:06;9.60;;;8.40;;
2674;SDS011;1347;42.122;24.746;2023-05-07T06:29:33;9.37;;;8.37;;
2674;SDS011;1347;42.122;24.746;2023-05-07T06:32:07;11.13;;;9.53;;
2674;SDS011;1347;42.122;24.746;2023-05-07T06:34:34;9.60;;;8.57;;
2674;SDS011;1347;42.122;24.746;2023-05-07T06:37:01;10.33;;;8.97;;
2674;SDS011;1347;42.122;24.746;2023-05-07T06:39:28;13.23;;;9.57;;
2674;SDS011;1347;42.122;24.746;2023-05-07T06:41:55;11.40;;;8.40;;
2674;SDS011;1347;42.122;24.746;2023-05-07T06:44:22;10.00;;;8.60;;
2674;SDS011;1347;42.122;24.746;2023-05-07T06:46:49;10.20;;;9.13;;
2674;SDS011;1347;42.122;24.746;2023-05-07T06:49:18;16.60;;;9.50;;
2674;SDS011;1347;42.122;24.746;2023-05-07T06:51:44;9.00;;;8.20;;
2674;SDS011;1347;42.122;24.746;2023-05-07T06:54:11;12.53;;;8.80;;
2674;SDS011;1347;42.122;24.746;2023-05-07T06:56:38;11.37;;;8.70;;
2674;SDS011;1347;42.122;24.746;2023-05-07T06:59:05;10.23;;;8.80;;
2674;SDS011;1347;42.122;24.746;2023-05-07T07:01:32;9.53;;;8.63;;
2674;SDS011;1347;42.122;24.746;2023-05-07T07:03:59;10.00;;;9.10;;
2674;SDS011;1347;42.122;24.746;2023-05-07T07:06:28;10.70;;;8.40;;
2674;SDS011;1347;42.122;24.746;2023-05-07T07:08:56;10.70;;;8.40;;
2674;SDS011;1347;42.122;24.746;2023-05-07T07:11:23;10.53;;;9.40;;
2674;SDS011;1347;42.122;24.746;2023-05-07T07:13:50;10.87;;;8.27;;
2674;SDS011;1347;42.122;24.746;2023-05-07T07:16:18;10.80;;;9.70;;
2674;SDS011;1347;42.122;24.746;2023-05-07T07:18:45;10.27;;;9.37;;
2674;SDS011;1347;42.122;24.746;2023-05-07T07:21:12;10.47;;;8.30;;
2674;SDS011;1347;42.122;24.746;2023-05-07T07:23:41;11.70;;;9.17;;
2674;SDS011;1347;42.122;24.746;2023-05-07T07:26:08;9.03;;;7.73;;
2674;SDS011;1347;42.122;24.746;2023-05-07T07:28:34;8.97;;;7.80;;
2674;SDS011;1347;42.122;24.746;2023-05-07T07:31:01;9.60;;;8.80;;
2674;SDS011;1347;42.122;24.746;2023-05-07T07:33:28;10.13;;;9.17;;
2674;SDS011;1347;42.122;24.746;2023-05-07T07:35:55;9.43;;;8.70;;
2674;SDS011;1347;42.122;24.746;2023-05-07T07:38:22;9.10;;;8.27;;
2674;SDS011;1347;42.122;24.746;2023-05-07T07:40:50;11.53;;;9.87;;
2674;SDS011;1347;42.122;24.746;2023-05-07T07:43:17;10.60;;;9.50;;
2674;SDS011;1347;42.122;24.746;2023-05-07T07:45:44;10.27;;;9.27;;
2674;SDS011;1347;42.122;24.746;2023-05-07T07:48:11;10.80;;;9.73;;
2674;SDS011;1347;42.122;24.746;2023-05-07T07:50:38;10.30;;;9.30;;
2674;SDS011;1347;42.122;24.746;2023-05-07T07:53:05;11.80;;;9.40;;
2674;SDS011;1347;42.122;24.746;2023-05-07T07:55:32;11.60;;;9.97;;
2674;SDS011;1347;42.122;24.746;2023-05-07T07:58:05;12.57;;;9.00;;
2674;SDS011;1347;42.122;24.746;2023-05-07T08:00:32;8.47;;;7.80;;
2674;SDS011;1347;42.122;24.746;2023-05-07T08:02:59;9.00;;;8.30;;
2674;SDS011;1347;42.122;24.746;2023-05-07T08:05:28;12.27;;;8.90;;
2674;SDS011;1347;42.122;24.746;2023-05-07T08:07:55;9.27;;;8.20;;
2674;SDS011;1347;42.122;24.746;2023-05-07T08:10:23;8.30;;;7.53;;
2674;SDS011;1347;42.122;24.746;2023-05-07T08:12:50;9.47;;;8.67;;
2674;SDS011;1347;42.122;24.746;2023-05-07T08:15:19;8.87;;;8.07;;
2674;SDS011;1347;42.122;24.746;2023-05-07T08:17:45;8.00;;;7.20;;
2674;SDS011;1347;42.122;24.746;2023-05-07T08:20:13;7.67;;;6.70;;
2674;SDS011;1347;42.122;24.746;2023-05-07T08:22:40;8.27;;;7.63;;
2674;SDS011;1347;42.122;24.746;2023-05-07T08:25:07;9.07;;;8.23;;
2674;SDS011;1347;42.122;24.746;2023-05-07T08:27:35;7.63;;;6.93;;
2674;SDS011;1347;42.122;24.746;2023-05-07T08:30:02;7.33;;;6.67;;
2674;SDS011;1347;42.122;24.746;2023-05-07T08:32:31;10.67;;;7.73;;
2674;SDS011;1347;42.122;24.746;2023-05-07T08:34:57;8.60;;;7.73;;
2674;SDS011;1347;42.122;24.746;2023-05-07T08:37:24;10.50;;;8.37;;
2674;SDS011;1347;42.122;24.746;2023-05-07T08:39:51;9.40;;;8.20;;
2674;SDS011;1347;42.122;24.746;2023-05-07T08:42:18;11.43;;;8.27;;
2674;SDS011;1347;42.122;24.746;2023-05-07T08:44:49;9.60;;;8.80;;
2674;SDS011;1347;42.122;24.746;2023-05-07T08:47:19;6.83;;;6.23;;
2674;SDS011;1347;42.122;24.746;2023-05-07T08:49:50;6.67;;;6.00;;
2674;SDS011;1347;42.122;24.746;2023-05-07T08:52:17;7.03;;;6.27;;
2674;SDS011;1347;42.122;24.746;2023-05-07T08:54:45;10.23;;;6.47;;
2674;SDS011;1347;42.122;24.746;2023-05-07T08:57:12;7.90;;;6.33;;
2674;SDS011;1347;42.122;24.746;2023-05-07T08:59:40;7.00;;;6.40;;
2674;SDS011;1347;42.122;24.746;2023-05-07T09:02:07;7.30;;;6.10;;
2674;SDS011;1347;42.122;24.746;2023-05-07T09:04:36;6.40;;;5.90;;
2674;SDS011;1347;42.122;24.746;2023-05-07T09:07:04;6.13;;;5.60;;
2674;SDS011;1347;42.122;24.746;2023-05-07T09:09:32;6.13;;;5.53;;
2674;SDS011;1347;42.122;24.746;2023-05-07T09:11:59;5.50;;;5.00;;
2674;SDS011;1347;42.122;24.746;2023-05-07T09:14:27;5.93;;;5.30;;
2674;SDS011;1347;42.122;24.746;2023-05-07T09:16:55;5.60;;;5.10;;
2674;SDS011;1347;42.122;24.746;2023-05-07T09:19:22;9.00;;;5.43;;
2674;SDS011;1347;42.122;24.746;2023-05-07T09:21:54;5.90;;;4.70;;
2674;SDS011;1347;42.122;24.746;2023-05-07T09:24:25;7.23;;;5.50;;
2674;SDS011;1347;42.122;24.746;2023-05-07T09:26:53;9.10;;;5.10;;
2674;SDS011;1347;42.122;24.746;2023-05-07T09:29:21;6.03;;;4.27;;
2674;SDS011;1347;42.122;24.746;2023-05-07T09:31:48;4.70;;;3.87;;
2674;SDS011;1347;42.122;24.746;2023-05-07T09:34:15;5.57;;;4.50;;
2674;SDS011;1347;42.122;24.746;2023-05-07T09:36:42;5.13;;;4.50;;
2674;SDS011;1347;42.122;24.746;2023-05-07T09:39:09;4.20;;;3.90;;
2674;SDS011;1347;42.122;24.746;2023-05-07T09:41:44;4.50;;;4.20;;
2674;SDS011;1347;42.122;24.746;2023-05-07T09:44:12;5.10;;;4.70;;
2674;SDS011;1347;42.122;24.746;2023-05-07T09:46:41;5.70;;;4.90;;
2674;SDS011;1347;42.122;24.746;2023-05-07T09:49:11;6.17;;;5.70;;
2674;SDS011;1347;42.122;24.746;2023-05-07T09:51:43;6.53;;;5.70;;
2674;SDS011;1347;42.122;24.746;2023-05-07T09:54:14;5.23;;;4.87;;
2674;SDS011;1347;42.122;24.746;2023-05-07T09:56:43;4.83;;;4.43;;
2674;SDS011;1347;42.122;24.746;2023-05-07T09:59:12;5.57;;;5.07;;
2674;SDS011;1347;42.122;24.746;2023-05-07T10:01:41;6.40;;;5.00;;
2674;SDS011;1347;42.122;24.746;2023-05-07T10:04:09;5.33;;;4.93;;
2674;SDS011;1347;42.122;24.746;2023-05-07T10:06:36;8.33;;;4.70;;
2674;SDS011;1347;42.122;24.746;2023-05-07T10:09:04;6.00;;;5.50;;
2674;SDS011;1347;42.122;24.746;2023-05-07T10:11:32;8.97;;;5.20;;
2674;SDS011;1347;42.122;24.746;2023-05-07T10:14:02;5.20;;;4.80;;
2674;SDS011;1347;42.122;24.746;2023-05-07T10:16:31;7.10;;;5.83;;
2674;SDS011;1347;42.122;24.746;2023-05-07T10:19:01;5.60;;;5.00;;
2674;SDS011;1347;42.122;24.746;2023-05-07T10:21:29;5.53;;;5.03;;
2674;SDS011;1347;42.122;24.746;2023-05-07T10:23:58;5.40;;;4.90;;
2674;SDS011;1347;42.122;24.746;2023-05-07T10:26:31;6.23;;;5.60;;
2674;SDS011;1347;42.122;24.746;2023-05-07T10:28:59;6.07;;;5.57;;
2674;SDS011;1347;42.122;24.746;2023-05-07T10:31:47;6.30;;;5.80;;
2674;SDS011;1347;42.122;24.746;2023-05-07T10:34:20;7.63;;;5.40;;
2674;SDS011;1347;42.122;24.746;2023-05-07T10:36:51;5.87;;;5.37;;
2674;SDS011;1347;42.122;24.746;2023-05-07T10:39:19;5.43;;;5.00;;
2674;SDS011;1347;42.122;24.746;2023-05-07T10:41:47;8.57;;;5.60;;
2674;SDS011;1347;42.122;24.746;2023-05-07T10:44:25;5.87;;;5.30;;
2674;SDS011;1347;42.122;24.746;2023-05-07T10:47:06;4.70;;;4.27;;
2674;SDS011;1347;42.122;24.746;2023-05-07T10:49:34;7.50;;;5.40;;
2674;SDS011;1347;42.122;24.746;2023-05-07T10:52:11;5.53;;;5.07;;
2674;SDS011;1347;42.122;24.746;2023-05-07T10:54:40;5.73;;;5.20;;
2674;SDS011;1347;42.122;24.746;2023-05-07T11:00:05;6.30;;;5.00;;
2674;SDS011;1347;42.122;24.746;2023-05-07T11:03:08;5.40;;;5.00;;
2674;SDS011;1347;42.122;24.746;2023-05-07T11:05:35;6.40;;;5.53;;
2674;SDS011;1347;42.122;24.746;2023-05-07T11:08:03;6.33;;;4.73;;
2674;SDS011;1347;42.122;24.746;2023-05-07T11:10:50;5.30;;;4.90;;
2674;SDS011;1347;42.122;24.746;2023-05-07T11:13:19;5.73;;;5.17;;
2674;SDS011;1347;42.122;24.746;2023-05-07T11:16:17;5.90;;;4.57;;
2674;SDS011;1347;42.122;24.746;2023-05-07T11:18:46;5.70;;;5.20;;
2674;SDS011;1347;42.122;24.746;2023-05-07T11:21:16;5.17;;;4.67;;
2674;SDS011;1347;42.122;24.746;2023-05-07T11:23:58;5.20;;;4.80;;
2674;SDS011;1347;42.122;24.746;2023-05-07T11:26:27;6.20;;;5.23;;
2674;SDS011;1347;42.122;24.746;2023-05-07T11:28:55;6.00;;;4.10;;
2674;SDS011;1347;42.122;24.746;2023-05-07T11:31:25;4.50;;;3.87;;
2674;SDS011;1347;42.122;24.746;2023-05-07T11:33:54;4.87;;;4.53;;
2674;SDS011;1347;42.122;24.746;2023-05-07T11:36:22;5.00;;;4.37;;
2674;SDS011;1347;42.122;24.746;2023-05-07T11:38:51;5.17;;;4.67;;
2674;SDS011;1347;42.122;24.746;2023-05-07T11:41:18;4.90;;;4.50;;
2674;SDS011;1347;42.122;24.746;2023-05-07T11:43:55;5.57;;;4.93;;
2674;SDS011;1347;42.122;24.746;2023-05-07T11:46:24;6.40;;;5.00;;
2674;SDS011;1347;42.122;24.746;2023-05-07T11:48:52;6.80;;;4.60;;
2674;SDS011;1347;42.122;24.746;2023-05-07T11:51:20;5.23;;;4.83;;
2674;SDS011;1347;42.122;24.746;2023-05-07T11:53:47;5.37;;;4.90;;
2674;SDS011;1347;42.122;24.746;2023-05-07T11:56:15;7.07;;;4.83;;
2674;SDS011;1347;42.122;24.746;2023-05-07T11:58:44;5.50;;;5.00;;
2674;SDS011;1347;42.122;24.746;2023-05-07T12:01:12;5.10;;;4.70;;
2674;SDS011;1347;42.122;24.746;2023-05-07T12:03:43;5.03;;;4.47;;
2674;SDS011;1347;42.122;24.746;2023-05-07T12:06:11;7.03;;;4.70;;
2674;SDS011;1347;42.122;24.746;2023-05-07T12:08:39;4.63;;;4.23;;
2674;SDS011;1347;42.122;24.746;2023-05-07T12:11:06;6.30;;;4.70;;
2674;SDS011;1347;42.122;24.746;2023-05-07T12:13:34;6.10;;;4.77;;
2674;SDS011;1347;42.122;24.746;2023-05-07T12:16:01;5.33;;;4.80;;
2674;SDS011;1347;42.122;24.746;2023-05-07T12:18:29;4.47;;;4.07;;
2674;SDS011;1347;42.122;24.746;2023-05-07T12:20:58;4.57;;;4.17;;
2674;SDS011;1347;42.122;24.746;2023-05-07T12:23:25;8.27;;;5.00;;
2674;SDS011;1347;42.122;24.746;2023-05-07T12:25:53;5.17;;;4.77;;
2674;SDS011;1347;42.122;24.746;2023-05-07T12:28:20;5.60;;;5.10;;
2674;SDS011;1347;42.122;24.746;2023-05-07T12:30:47;6.03;;;4.70;;
2674;SDS011;1347;42.122;24.746;2023-05-07T12:33:16;5.17;;;4.63;;
2674;SDS011;1347;42.122;24.746;2023-05-07T12:35:43;9.73;;;5.10;;
2674;SDS011;1347;42.122;24.746;2023-05-07T12:38:12;4.67;;;4.17;;
2674;SDS011;1347;42.122;24.746;2023-05-07T12:40:40;5.60;;;4.63;;
2674;SDS011;1347;42.122;24.746;2023-05-07T12:45:42;5.30;;;4.80;;
2674;SDS011;1347;42.122;24.746;2023-05-07T12:48:09;4.90;;;4.10;;
2674;SDS011;1347;42.122;24.746;2023-05-07T12:50:37;7.53;;;4.50;;
2674;SDS011;1347;42.122;24.746;2023-05-07T12:53:04;5.43;;;4.93;;
2674;SDS011;1347;42.122;24.746;2023-05-07T12:55:34;7.70;;;5.13;;
2674;SDS011;1347;42.122;24.746;2023-05-07T12:58:07;5.20;;;4.80;;
2674;SDS011;1347;42.122;24.746;2023-05-07T13:00:34;5.37;;;4.83;;
2674;SDS011;1347;42.122;24.746;2023-05-07T13:03:02;4.83;;;4.37;;
2674;SDS011;1347;42.122;24.746;2023-05-07T13:05:31;5.20;;;4.40;;
2674;SDS011;1347;42.122;24.746;2023-05-07T13:07:58;6.60;;;5.20;;
2674;SDS011;1347;42.122;24.746;2023-05-07T13:10:25;5.53;;;5.07;;
2674;SDS011;1347;42.122;24.746;2023-05-07T13:12:53;5.47;;;5.07;;
2674;SDS011;1347;42.122;24.746;2023-05-07T13:15:20;7.17;;;4.73;;
2674;SDS011;1347;42.122;24.746;2023-05-07T13:17:48;5.43;;;4.93;;
2674;SDS011;1347;42.122;24.746;2023-05-07T13:20:15;5.60;;;4.50;;
2674;SDS011;1347;42.122;24.746;2023-05-07T13:22:42;5.40;;;4.90;;
2674;SDS011;1347;42.122;24.746;2023-05-07T13:25:09;5.67;;;5.27;;
2674;SDS011;1347;42.122;24.746;2023-05-07T13:27:36;6.97;;;4.63;;
2674;SDS011;1347;42.122;24.746;2023-05-07T13:30:05;4.97;;;4.47;;
2674;SDS011;1347;42.122;24.746;2023-05-07T13:32:32;5.30;;;4.77;;
2674;SDS011;1347;42.122;24.746;2023-05-07T13:34:59;6.57;;;4.87;;
2674;SDS011;1347;42.122;24.746;2023-05-07T13:37:26;5.47;;;4.97;;
2674;SDS011;1347;42.122;24.746;2023-05-07T13:39:53;4.87;;;4.53;;
2674;SDS011;1347;42.122;24.746;2023-05-07T13:42:20;6.37;;;4.47;;
2674;SDS011;1347;42.122;24.746;2023-05-07T13:44:47;4.63;;;4.30;;
2674;SDS011;1347;42.122;24.746;2023-05-07T13:47:15;4.70;;;4.30;;
2674;SDS011;1347;42.122;24.746;2023-05-07T13:49:42;4.77;;;4.37;;
2674;SDS011;1347;42.122;24.746;2023-05-07T13:52:09;7.67;;;4.80;;
2674;SDS011;1347;42.122;24.746;2023-05-07T13:54:36;5.30;;;4.90;;
2674;SDS011;1347;42.122;24.746;2023-05-07T13:57:03;5.00;;;4.70;;
2674;SDS011;1347;42.122;24.746;2023-05-07T13:59:30;5.03;;;4.60;;
2674;SDS011;1347;42.122;24.746;2023-05-07T14:01:56;6.60;;;3.90;;
2674;SDS011;1347;42.122;24.746;2023-05-07T14:04:25;4.83;;;4.47;;
2674;SDS011;1347;42.122;24.746;2023-05-07T14:06:52;5.63;;;5.13;;
2674;SDS011;1347;42.122;24.746;2023-05-07T14:09:18;8.03;;;4.40;;
2674;SDS011;1347;42.122;24.746;2023-05-07T14:11:45;4.90;;;4.50;;
2674;SDS011;1347;42.122;24.746;2023-05-07T14:14:16;4.80;;;4.40;;
2674;SDS011;1347;42.122;24.746;2023-05-07T14:16:43;4.40;;;4.00;;
2674;SDS011;1347;42.122;24.746;2023-05-07T14:19:10;4.90;;;4.40;;
2674;SDS011;1347;42.122;24.746;2023-05-07T14:21:38;4.63;;;3.80;;
2674;SDS011;1347;42.122;24.746;2023-05-07T14:24:06;4.80;;;4.33;;
2674;SDS011;1347;42.122;24.746;2023-05-07T14:26:33;3.90;;;3.60;;
2674;SDS011;1347;42.122;24.746;2023-05-07T14:29:00;4.37;;;4.07;;
2674;SDS011;1347;42.122;24.746;2023-05-07T14:31:27;4.40;;;3.87;;
2674;SDS011;1347;42.122;24.746;2023-05-07T14:33:54;4.90;;;4.40;;
2674;SDS011;1347;42.122;24.746;2023-05-07T14:36:23;4.83;;;3.70;;
2674;SDS011;1347;42.122;24.746;2023-05-07T14:38:52;4.90;;;4.40;;
2674;SDS011;1347;42.122;24.746;2023-05-07T14:41:20;4.33;;;3.93;;
2674;SDS011;1347;42.122;24.746;2023-05-07T14:43:47;7.17;;;4.37;;
2674;SDS011;1347;42.122;24.746;2023-05-07T14:46:16;4.13;;;3.67;;
2674;SDS011;1347;42.122;24.746;2023-05-07T14:48:43;4.93;;;4.40;;
2674;SDS011;1347;42.122;24.746;2023-05-07T14:51:11;4.93;;;3.93;;
2674;SDS011;1347;42.122;24.746;2023-05-07T14:53:38;5.90;;;3.83;;
2674;SDS011;1347;42.122;24.746;2023-05-07T14:56:07;4.03;;;3.73;;
2674;SDS011;1347;42.122;24.746;2023-05-07T14:58:34;4.00;;;3.70;;
2674;SDS011;1347;42.122;24.746;2023-05-07T15:01:01;6.87;;;4.17;;
2674;SDS011;1347;42.122;24.746;2023-05-07T15:03:28;3.67;;;3.30;;